sensor_id;sensor_type;location;lat;lon;timestamp;pressure;altitude;pressure_sealevel;temperature;humidity
79028;BME280;68427;48.476;19.102;2023-07-13T00:01:59;97349.75;;;19.55;83.51
79028;BME280;68427;48.476;19.102;2023-07-13T00:04:25;97339.78;;;19.67;82.02
79028;BME280;68427;48.476;19.102;2023-07-13T00:06:51;97336.22;;;19.99;79.17
79028;BME280;68427;48.476;19.102;2023-07-13T00:09:19;97319.47;;;20.08;78.52
79028;BME280;68427;48.476;19.102;2023-07-13T00:11:45;97322.72;;;20.21;78.18
79028;BME280;68427;48.476;19.102;2023-07-13T00:14:14;97311.59;;;20.24;77.71
79028;BME280;68427;48.476;19.102;2023-07-13T00:16:41;97300.44;;;20.37;76.00
79028;BME280;68427;48.476;19.102;2023-07-13T00:19:09;97267.72;;;20.37;75.76
79028;BME280;68427;48.476;19.102;2023-07-13T00:21:34;97270.13;;;20.48;75.24
79028;BME280;68427;48.476;19.102;2023-07-13T00:24:00;97259.47;;;20.48;76.21
79028;BME280;68427;48.476;19.102;2023-07-13T00:26:28;97274.09;;;20.41;76.67
79028;BME280;68427;48.476;19.102;2023-07-13T00:28:53;97288.47;;;20.35;77.09
79028;BME280;68427;48.476;19.102;2023-07-13T00:31:19;97307.88;;;20.30;78.30
79028;BME280;68427;48.476;19.102;2023-07-13T00:33:45;97309.19;;;20.22;78.47
79028;BME280;68427;48.476;19.102;2023-07-13T00:36:11;97313.69;;;20.17;78.56
79028;BME280;68427;48.476;19.102;2023-07-13T00:38:37;97320.06;;;20.21;77.94
79028;BME280;68427;48.476;19.102;2023-07-13T00:41:03;97323.81;;;20.25;77.84
79028;BME280;68427;48.476;19.102;2023-07-13T00:43:31;97326.72;;;20.23;77.82
79028;BME280;68427;48.476;19.102;2023-07-13T00:46:22;97327.78;;;20.17;78.99
79028;BME280;68427;48.476;19.102;2023-07-13T00:48:49;97304.88;;;20.16;77.85
79028;BME280;68427;48.476;19.102;2023-07-13T00:51:19;97306.22;;;20.19;77.35
79028;BME280;68427;48.476;19.102;2023-07-13T00:53:46;97294.53;;;20.20;77.12
79028;BME280;68427;48.476;19.102;2023-07-13T00:56:12;97278.84;;;20.23;77.69
79028;BME280;68427;48.476;19.102;2023-07-13T00:58:40;97288.44;;;20.24;77.20
79028;BME280;68427;48.476;19.102;2023-07-13T01:01:06;97282.03;;;20.25;76.92
79028;BME280;68427;48.476;19.102;2023-07-13T01:03:31;97281.78;;;20.22;77.35
79028;BME280;68427;48.476;19.102;2023-07-13T01:05:58;97283.88;;;20.15;77.80
79028;BME280;68427;48.476;19.102;2023-07-13T01:08:23;97278.00;;;20.07;78.00
79028;BME280;68427;48.476;19.102;2023-07-13T01:10:53;97262.56;;;19.99;78.15
79028;BME280;68427;48.476;19.102;2023-07-13T01:13:20;97257.75;;;19.96;78.23
79028;BME280;68427;48.476;19.102;2023-07-13T01:15:48;97251.91;;;19.89;78.53
79028;BME280;68427;48.476;19.102;2023-07-13T01:18:16;97252.16;;;19.88;78.63
79028;BME280;68427;48.476;19.102;2023-07-13T01:20:50;97257.69;;;19.81;78.98
79028;BME280;68427;48.476;19.102;2023-07-13T01:23:16;97269.13;;;19.76;79.46
79028;BME280;68427;48.476;19.102;2023-07-13T01:25:42;97272.84;;;19.75;79.10
79028;BME280;68427;48.476;19.102;2023-07-13T01:28:08;97299.13;;;19.72;79.31
79028;BME280;68427;48.476;19.102;2023-07-13T01:30:34;97286.56;;;19.62;80.83
79028;BME280;68427;48.476;19.102;2023-07-13T01:33:00;97283.13;;;19.61;81.47
79028;BME280;68427;48.476;19.102;2023-07-13T01:35:25;97275.34;;;19.50;82.11
79028;BME280;68427;48.476;19.102;2023-07-13T01:37:53;97271.59;;;19.46;82.10
79028;BME280;68427;48.476;19.102;2023-07-13T01:40:20;97267.03;;;19.41;82.57
79028;BME280;68427;48.476;19.102;2023-07-13T01:42:46;97268.09;;;19.40;82.04
79028;BME280;68427;48.476;19.102;2023-07-13T01:45:12;97272.34;;;19.41;81.83
79028;BME280;68427;48.476;19.102;2023-07-13T01:47:37;97275.28;;;19.39;81.92
79028;BME280;68427;48.476;19.102;2023-07-13T01:50:03;97276.28;;;19.33;82.18
79028;BME280;68427;48.476;19.102;2023-07-13T01:52:29;97266.19;;;19.30;82.64
79028;BME280;68427;48.476;19.102;2023-07-13T01:54:56;97257.16;;;19.26;82.98
79028;BME280;68427;48.476;19.102;2023-07-13T01:57:22;97254.75;;;19.25;82.09
79028;BME280;68427;48.476;19.102;2023-07-13T01:59:48;97252.84;;;19.20;82.76
79028;BME280;68427;48.476;19.102;2023-07-13T02:02:13;97240.06;;;19.12;82.02
79028;BME280;68427;48.476;19.102;2023-07-13T02:04:39;97245.34;;;19.07;82.70
79028;BME280;68427;48.476;19.102;2023-07-13T02:07:05;97248.97;;;18.95;83.31
79028;BME280;68427;48.476;19.102;2023-07-13T02:09:31;97245.50;;;18.95;83.74
79028;BME280;68427;48.476;19.102;2023-07-13T02:11:58;97243.09;;;18.93;83.96
79028;BME280;68427;48.476;19.102;2023-07-13T02:14:24;97240.16;;;18.90;83.30
79028;BME280;68427;48.476;19.102;2023-07-13T02:16:49;97232.44;;;18.88;83.47
79028;BME280;68427;48.476;19.102;2023-07-13T02:19:15;97226.84;;;18.85;83.18
79028;BME280;68427;48.476;19.102;2023-07-13T02:21:41;97236.38;;;18.81;83.54
79028;BME280;68427;48.476;19.102;2023-07-13T02:24:07;97226.81;;;18.80;83.60
79028;BME280;68427;48.476;19.102;2023-07-13T02:26:33;97217.00;;;18.80;83.45
79028;BME280;68427;48.476;19.102;2023-07-13T02:29:01;97224.41;;;18.78;82.38
79028;BME280;68427;48.476;19.102;2023-07-13T02:31:26;97221.69;;;18.73;82.33
79028;BME280;68427;48.476;19.102;2023-07-13T02:33:52;97214.25;;;18.70;81.76
79028;BME280;68427;48.476;19.102;2023-07-13T02:36:18;97215.50;;;18.62;81.61
79028;BME280;68427;48.476;19.102;2023-07-13T02:38:44;97211.72;;;18.53;82.47
79028;BME280;68427;48.476;19.102;2023-07-13T02:41:10;97211.38;;;18.44;82.23
79028;BME280;68427;48.476;19.102;2023-07-13T02:43:38;97211.59;;;18.38;82.53
79028;BME280;68427;48.476;19.102;2023-07-13T02:46:05;97214.19;;;18.32;83.05
79028;BME280;68427;48.476;19.102;2023-07-13T02:48:32;97225.88;;;18.31;83.21
79028;BME280;68427;48.476;19.102;2023-07-13T02:50:58;97226.09;;;18.30;83.57
79028;BME280;68427;48.476;19.102;2023-07-13T02:53:24;97238.81;;;18.28;83.72
79028;BME280;68427;48.476;19.102;2023-07-13T02:55:49;97253.63;;;18.24;83.66
79028;BME280;68427;48.476;19.102;2023-07-13T02:58:15;97260.19;;;18.16;83.77
79028;BME280;68427;48.476;19.102;2023-07-13T03:00:44;97254.06;;;18.16;84.25
79028;BME280;68427;48.476;19.102;2023-07-13T03:03:13;97249.47;;;18.06;84.67
79028;BME280;68427;48.476;19.102;2023-07-13T03:05:41;97252.38;;;18.04;85.47
79028;BME280;68427;48.476;19.102;2023-07-13T03:08:08;97261.59;;;18.02;85.45
79028;BME280;68427;48.476;19.102;2023-07-13T03:10:34;97268.03;;;18.06;85.35
79028;BME280;68427;48.476;19.102;2023-07-13T03:13:00;97268.56;;;18.08;84.94
79028;BME280;68427;48.476;19.102;2023-07-13T03:15:26;97259.81;;;18.07;84.47
79028;BME280;68427;48.476;19.102;2023-07-13T03:17:52;97261.84;;;18.00;85.16
79028;BME280;68427;48.476;19.102;2023-07-13T03:20:19;97259.75;;;18.02;85.16
79028;BME280;68427;48.476;19.102;2023-07-13T03:22:45;97254.50;;;18.07;84.77
79028;BME280;68427;48.476;19.102;2023-07-13T03:25:11;97249.53;;;18.11;84.73
79028;BME280;68427;48.476;19.102;2023-07-13T03:27:37;97246.31;;;18.09;84.55
79028;BME280;68427;48.476;19.102;2023-07-13T03:30:03;97262.28;;;18.14;84.84
79028;BME280;68427;48.476;19.102;2023-07-13T03:32:29;97263.91;;;18.20;84.86
79028;BME280;68427;48.476;19.102;2023-07-13T03:34:55;97272.19;;;18.24;84.87
79028;BME280;68427;48.476;19.102;2023-07-13T03:37:22;97286.53;;;18.28;84.99
79028;BME280;68427;48.476;19.102;2023-07-13T03:39:49;97295.84;;;18.30;85.25
79028;BME280;68427;48.476;19.102;2023-07-13T03:42:14;97285.50;;;18.29;85.10
79028;BME280;68427;48.476;19.102;2023-07-13T03:44:40;97274.91;;;18.29;85.70
79028;BME280;68427;48.476;19.102;2023-07-13T03:47:06;97279.47;;;18.33;85.85
79028;BME280;68427;48.476;19.102;2023-07-13T03:49:34;97281.09;;;18.40;85.68
79028;BME280;68427;48.476;19.102;2023-07-13T03:52:00;97302.13;;;18.46;85.77
79028;BME280;68427;48.476;19.102;2023-07-13T03:54:27;97293.72;;;18.54;85.28
79028;BME280;68427;48.476;19.102;2023-07-13T03:56:52;97298.34;;;18.69;84.77
79028;BME280;68427;48.476;19.102;2023-07-13T03:59:18;97290.75;;;18.78;84.42
79028;BME280;68427;48.476;19.102;2023-07-13T04:01:44;97286.84;;;18.86;84.30
79028;BME280;68427;48.476;19.102;2023-07-13T04:04:10;97287.19;;;18.94;84.07
79028;BME280;68427;48.476;19.102;2023-07-13T04:06:37;97276.91;;;19.08;83.34
79028;BME280;68427;48.476;19.102;2023-07-13T04:09:03;97263.44;;;19.15;83.16
79028;BME280;68427;48.476;19.102;2023-07-13T04:11:35;97274.13;;;19.25;83.15
79028;BME280;68427;48.476;19.102;2023-07-13T04:14:03;97270.47;;;19.31;83.09
79028;BME280;68427;48.476;19.102;2023-07-13T04:16:29;97278.16;;;19.33;83.86
79028;BME280;68427;48.476;19.102;2023-07-13T04:18:55;97264.63;;;19.34;83.47
79028;BME280;68427;48.476;19.102;2023-07-13T04:21:25;97268.63;;;19.37;83.65
79028;BME280;68427;48.476;19.102;2023-07-13T04:23:51;97272.09;;;19.42;83.64
79028;BME280;68427;48.476;19.102;2023-07-13T04:26:16;97265.47;;;19.45;83.49
79028;BME280;68427;48.476;19.102;2023-07-13T04:28:44;97260.47;;;19.49;83.32
79028;BME280;68427;48.476;19.102;2023-07-13T04:31:09;97257.56;;;19.55;83.05
79028;BME280;68427;48.476;19.102;2023-07-13T04:33:35;97252.28;;;19.60;82.69
79028;BME280;68427;48.476;19.102;2023-07-13T04:36:01;97249.91;;;19.64;82.69
79028;BME280;68427;48.476;19.102;2023-07-13T04:38:28;97269.63;;;19.73;82.56
79028;BME280;68427;48.476;19.102;2023-07-13T04:40:55;97265.16;;;19.79;82.77
79028;BME280;68427;48.476;19.102;2023-07-13T04:43:22;97265.19;;;19.84;82.68
79028;BME280;68427;48.476;19.102;2023-07-13T04:45:50;97263.88;;;19.92;82.59
79028;BME280;68427;48.476;19.102;2023-07-13T04:48:16;97257.53;;;20.08;81.67
79028;BME280;68427;48.476;19.102;2023-07-13T04:50:41;97271.66;;;20.19;82.07
79028;BME280;68427;48.476;19.102;2023-07-13T04:53:08;97268.75;;;20.31;81.54
79028;BME280;68427;48.476;19.102;2023-07-13T04:55:34;97266.13;;;20.46;81.11
79028;BME280;68427;48.476;19.102;2023-07-13T04:58:00;97273.34;;;20.56;81.02
79028;BME280;68427;48.476;19.102;2023-07-13T05:00:26;97272.56;;;20.65;80.94
79028;BME280;68427;48.476;19.102;2023-07-13T05:02:54;97268.88;;;20.77;79.73
79028;BME280;68427;48.476;19.102;2023-07-13T05:05:19;97269.09;;;21.01;78.78
79028;BME280;68427;48.476;19.102;2023-07-13T05:07:45;97265.63;;;21.15;78.38
79028;BME280;68427;48.476;19.102;2023-07-13T05:10:11;97271.22;;;21.24;77.48
79028;BME280;68427;48.476;19.102;2023-07-13T05:12:36;97275.72;;;21.39;76.74
79028;BME280;68427;48.476;19.102;2023-07-13T05:15:03;97272.78;;;21.46;76.31
79028;BME280;68427;48.476;19.102;2023-07-13T05:17:28;97268.53;;;21.55;75.97
79028;BME280;68427;48.476;19.102;2023-07-13T05:19:55;97266.38;;;21.62;75.72
79028;BME280;68427;48.476;19.102;2023-07-13T05:22:21;97277.03;;;21.62;76.16
79028;BME280;68427;48.476;19.102;2023-07-13T05:24:47;97275.44;;;21.56;76.34
79028;BME280;68427;48.476;19.102;2023-07-13T05:27:13;97279.75;;;21.47;76.21
79028;BME280;68427;48.476;19.102;2023-07-13T05:29:38;97272.78;;;21.51;76.25
79028;BME280;68427;48.476;19.102;2023-07-13T05:32:05;97281.31;;;21.53;77.25
79028;BME280;68427;48.476;19.102;2023-07-13T05:34:31;97302.63;;;21.38;77.95
79028;BME280;68427;48.476;19.102;2023-07-13T05:36:58;97311.97;;;21.30;78.14
79028;BME280;68427;48.476;19.102;2023-07-13T05:39:23;97341.28;;;21.14;78.05
79028;BME280;68427;48.476;19.102;2023-07-13T05:41:50;97357.78;;;21.01;78.01
79028;BME280;68427;48.476;19.102;2023-07-13T05:44:15;97351.66;;;20.96;78.75
79028;BME280;68427;48.476;19.102;2023-07-13T05:46:41;97347.91;;;20.91;78.65
79028;BME280;68427;48.476;19.102;2023-07-13T05:49:07;97359.63;;;20.80;79.38
79028;BME280;68427;48.476;19.102;2023-07-13T05:51:33;97354.84;;;20.82;78.10
79028;BME280;68427;48.476;19.102;2023-07-13T05:54:00;97358.28;;;20.78;78.82
79028;BME280;68427;48.476;19.102;2023-07-13T05:56:25;97357.50;;;20.77;79.24
79028;BME280;68427;48.476;19.102;2023-07-13T05:58:52;97363.88;;;20.76;78.62
79028;BME280;68427;48.476;19.102;2023-07-13T06:01:17;97371.59;;;20.73;78.96
79028;BME280;68427;48.476;19.102;2023-07-13T06:03:45;97375.81;;;20.63;79.31
79028;BME280;68427;48.476;19.102;2023-07-13T06:06:11;97377.09;;;20.50;80.29
79028;BME280;68427;48.476;19.102;2023-07-13T06:08:38;97381.84;;;20.43;79.70
79028;BME280;68427;48.476;19.102;2023-07-13T06:11:07;97383.16;;;20.36;79.54
79028;BME280;68427;48.476;19.102;2023-07-13T06:13:33;97390.56;;;20.28;81.03
79028;BME280;68427;48.476;19.102;2023-07-13T06:15:59;97382.88;;;20.27;79.76
79028;BME280;68427;48.476;19.102;2023-07-13T06:18:25;97378.56;;;20.21;80.11
79028;BME280;68427;48.476;19.102;2023-07-13T06:20:51;97387.34;;;20.21;80.73
79028;BME280;68427;48.476;19.102;2023-07-13T06:23:16;97376.41;;;20.13;79.46
79028;BME280;68427;48.476;19.102;2023-07-13T06:25:43;97374.84;;;20.17;79.60
79028;BME280;68427;48.476;19.102;2023-07-13T06:28:10;97365.78;;;20.13;80.64
79028;BME280;68427;48.476;19.102;2023-07-13T06:30:38;97363.84;;;19.98;81.59
79028;BME280;68427;48.476;19.102;2023-07-13T06:33:03;97364.38;;;19.95;81.71
79028;BME280;68427;48.476;19.102;2023-07-13T06:35:29;97369.94;;;19.93;82.59
79028;BME280;68427;48.476;19.102;2023-07-13T06:37:55;97374.22;;;19.94;82.83
79028;BME280;68427;48.476;19.102;2023-07-13T06:40:20;97371.28;;;19.96;82.18
79028;BME280;68427;48.476;19.102;2023-07-13T06:42:46;97364.91;;;19.97;83.79
79028;BME280;68427;48.476;19.102;2023-07-13T06:45:13;97361.41;;;19.91;83.65
79028;BME280;68427;48.476;19.102;2023-07-13T06:47:39;97358.72;;;19.86;84.07
79028;BME280;68427;48.476;19.102;2023-07-13T06:50:06;97352.91;;;19.84;83.90
79028;BME280;68427;48.476;19.102;2023-07-13T06:52:31;97352.00;;;19.73;83.97
79028;BME280;68427;48.476;19.102;2023-07-13T06:54:57;97348.00;;;19.71;84.79
79028;BME280;68427;48.476;19.102;2023-07-13T06:57:23;97346.44;;;19.70;84.04
79028;BME280;68427;48.476;19.102;2023-07-13T06:59:49;97337.31;;;19.65;84.61
79028;BME280;68427;48.476;19.102;2023-07-13T07:02:16;97333.84;;;19.60;84.40
79028;BME280;68427;48.476;19.102;2023-07-13T07:04:41;97317.38;;;19.63;84.44
79028;BME280;68427;48.476;19.102;2023-07-13T07:07:07;97315.84;;;19.67;84.60
79028;BME280;68427;48.476;19.102;2023-07-13T07:09:33;97312.91;;;19.69;84.07
79028;BME280;68427;48.476;19.102;2023-07-13T07:11:58;97300.66;;;19.62;84.55
79028;BME280;68427;48.476;19.102;2023-07-13T07:14:24;97280.19;;;19.63;85.39
79028;BME280;68427;48.476;19.102;2023-07-13T07:16:50;97232.88;;;19.60;84.62
79028;BME280;68427;48.476;19.102;2023-07-13T07:19:17;97146.25;;;19.49;85.17
79028;BME280;68427;48.476;19.102;2023-07-13T07:21:43;97089.34;;;19.39;84.94
79028;BME280;68427;48.476;19.102;2023-07-13T07:24:08;97131.59;;;19.46;84.07
79028;BME280;68427;48.476;19.102;2023-07-13T07:26:34;97153.16;;;19.60;83.96
79028;BME280;68427;48.476;19.102;2023-07-13T07:29:00;97146.84;;;19.71;84.78
79028;BME280;68427;48.476;19.102;2023-07-13T07:31:25;97137.06;;;19.92;84.93
79028;BME280;68427;48.476;19.102;2023-07-13T07:33:51;97143.72;;;20.15;83.58
79028;BME280;68427;48.476;19.102;2023-07-13T07:36:18;97148.78;;;20.42;82.77
79028;BME280;68427;48.476;19.102;2023-07-13T07:38:44;97144.03;;;20.65;82.73
79028;BME280;68427;48.476;19.102;2023-07-13T07:41:10;97145.00;;;21.10;81.64
79028;BME280;68427;48.476;19.102;2023-07-13T07:43:36;97169.84;;;22.15;78.32
79028;BME280;68427;48.476;19.102;2023-07-13T07:46:02;97204.09;;;23.05;76.43
79028;BME280;68427;48.476;19.102;2023-07-13T07:48:27;97218.38;;;23.92;73.41
79028;BME280;68427;48.476;19.102;2023-07-13T07:50:53;97225.47;;;25.52;67.87
79028;BME280;68427;48.476;19.102;2023-07-13T07:53:20;97225.22;;;26.54;61.61
79028;BME280;68427;48.476;19.102;2023-07-13T07:55:46;97222.25;;;28.06;59.20
79028;BME280;68427;48.476;19.102;2023-07-13T07:58:13;97220.31;;;29.11;54.83
79028;BME280;68427;48.476;19.102;2023-07-13T08:00:38;97237.16;;;29.46;52.71
79028;BME280;68427;48.476;19.102;2023-07-13T08:03:04;97233.63;;;29.16;51.43
79028;BME280;68427;48.476;19.102;2023-07-13T08:05:29;97245.97;;;29.35;52.53
79028;BME280;68427;48.476;19.102;2023-07-13T08:07:55;97247.81;;;28.35;54.44
79028;BME280;68427;48.476;19.102;2023-07-13T08:10:22;97246.47;;;27.18;56.78
79028;BME280;68427;48.476;19.102;2023-07-13T08:12:48;97242.50;;;26.84;58.55
79028;BME280;68427;48.476;19.102;2023-07-13T08:15:16;97239.94;;;26.79;58.23
79028;BME280;68427;48.476;19.102;2023-07-13T08:17:42;97246.63;;;26.90;58.15
79028;BME280;68427;48.476;19.102;2023-07-13T08:20:09;97245.59;;;27.22;57.09
79028;BME280;68427;48.476;19.102;2023-07-13T08:22:36;97249.38;;;27.21;59.17
79028;BME280;68427;48.476;19.102;2023-07-13T08:25:02;97241.44;;;26.93;57.80
79028;BME280;68427;48.476;19.102;2023-07-13T08:27:29;97246.78;;;26.62;58.84
79028;BME280;68427;48.476;19.102;2023-07-13T08:29:55;97259.34;;;26.76;58.60
79028;BME280;68427;48.476;19.102;2023-07-13T08:32:22;97265.16;;;26.69;60.47
79028;BME280;68427;48.476;19.102;2023-07-13T08:34:48;97275.03;;;26.23;61.53
79028;BME280;68427;48.476;19.102;2023-07-13T08:37:16;97269.91;;;25.85;59.41
79028;BME280;68427;48.476;19.102;2023-07-13T08:39:42;97283.69;;;25.51;62.13
79028;BME280;68427;48.476;19.102;2023-07-13T08:42:14;97284.78;;;25.36;61.80
79028;BME280;68427;48.476;19.102;2023-07-13T08:44:49;97282.50;;;25.11;62.13
79028;BME280;68427;48.476;19.102;2023-07-13T08:47:21;97283.34;;;24.92;65.78
79028;BME280;68427;48.476;19.102;2023-07-13T08:49:48;97297.28;;;24.75;66.21
79028;BME280;68427;48.476;19.102;2023-07-13T08:52:24;97300.97;;;24.61;66.54
79028;BME280;68427;48.476;19.102;2023-07-13T08:54:52;97304.44;;;24.61;66.39
79028;BME280;68427;48.476;19.102;2023-07-13T08:57:24;97308.16;;;24.46;68.03
79028;BME280;68427;48.476;19.102;2023-07-13T08:59:56;97310.69;;;24.56;66.66
79028;BME280;68427;48.476;19.102;2023-07-13T09:02:27;97304.19;;;24.39;67.10
79028;BME280;68427;48.476;19.102;2023-07-13T09:04:58;97301.44;;;24.44;66.65
79028;BME280;68427;48.476;19.102;2023-07-13T09:07:35;97306.53;;;24.64;66.28
79028;BME280;68427;48.476;19.102;2023-07-13T09:10:14;97301.84;;;24.56;66.45
79028;BME280;68427;48.476;19.102;2023-07-13T09:12:48;97300.63;;;24.48;66.86
79028;BME280;68427;48.476;19.102;2023-07-13T09:15:28;97302.84;;;24.60;66.79
79028;BME280;68427;48.476;19.102;2023-07-13T09:18:02;97309.50;;;24.44;65.84
79028;BME280;68427;48.476;19.102;2023-07-13T09:20:34;97312.63;;;24.51;65.61
79028;BME280;68427;48.476;19.102;2023-07-13T09:23:05;97305.84;;;24.34;64.91
79028;BME280;68427;48.476;19.102;2023-07-13T09:25:34;97318.91;;;24.41;65.25
79028;BME280;68427;48.476;19.102;2023-07-13T09:28:02;97312.94;;;24.68;65.89
79028;BME280;68427;48.476;19.102;2023-07-13T09:30:40;97315.84;;;25.05;64.88
79028;BME280;68427;48.476;19.102;2023-07-13T09:33:09;97314.56;;;25.35;63.18
79028;BME280;68427;48.476;19.102;2023-07-13T09:35:35;97307.66;;;25.61;63.24
79028;BME280;68427;48.476;19.102;2023-07-13T09:38:10;97309.75;;;25.92;61.42
79028;BME280;68427;48.476;19.102;2023-07-13T09:40:44;97310.19;;;26.36;60.57
79028;BME280;68427;48.476;19.102;2023-07-13T09:43:15;97317.75;;;26.61;59.13
79028;BME280;68427;48.476;19.102;2023-07-13T09:45:45;97315.06;;;26.47;58.55
79028;BME280;68427;48.476;19.102;2023-07-13T09:48:12;97323.72;;;26.44;59.46
79028;BME280;68427;48.476;19.102;2023-07-13T09:50:39;97314.97;;;26.39;59.58
79028;BME280;68427;48.476;19.102;2023-07-13T09:53:11;97320.16;;;26.35;58.94
79028;BME280;68427;48.476;19.102;2023-07-13T09:55:39;97320.97;;;26.22;59.35
79028;BME280;68427;48.476;19.102;2023-07-13T09:58:05;97310.22;;;26.22;58.03
79028;BME280;68427;48.476;19.102;2023-07-13T10:00:36;97304.34;;;26.34;58.93
79028;BME280;68427;48.476;19.102;2023-07-13T10:03:05;97300.03;;;27.05;56.29
79028;BME280;68427;48.476;19.102;2023-07-13T10:05:39;97303.59;;;28.34;53.08
79028;BME280;68427;48.476;19.102;2023-07-13T10:08:05;97310.19;;;29.41;50.73
79028;BME280;68427;48.476;19.102;2023-07-13T10:10:33;97297.53;;;30.61;48.68
79028;BME280;68427;48.476;19.102;2023-07-13T10:13:01;97307.03;;;30.25;46.46
79028;BME280;68427;48.476;19.102;2023-07-13T10:15:30;97298.72;;;30.30;46.08
79028;BME280;68427;48.476;19.102;2023-07-13T10:17:57;97300.34;;;31.52;44.65
79028;BME280;68427;48.476;19.102;2023-07-13T10:20:26;97298.06;;;30.96;44.61
79028;BME280;68427;48.476;19.102;2023-07-13T10:22:56;97299.78;;;30.08;46.71
79028;BME280;68427;48.476;19.102;2023-07-13T10:25:25;97295.63;;;31.15;44.22
79028;BME280;68427;48.476;19.102;2023-07-13T10:27:55;97303.47;;;32.64;42.47
79028;BME280;68427;48.476;19.102;2023-07-13T10:30:27;97290.38;;;33.86;39.62
79028;BME280;68427;48.476;19.102;2023-07-13T10:32:58;97284.97;;;34.76;37.12
79028;BME280;68427;48.476;19.102;2023-07-13T10:35:29;97285.22;;;35.10;35.88
79028;BME280;68427;48.476;19.102;2023-07-13T10:37:59;97284.16;;;35.15;36.93
79028;BME280;68427;48.476;19.102;2023-07-13T10:40:31;97288.06;;;33.88;38.17
79028;BME280;68427;48.476;19.102;2023-07-13T10:43:02;97273.44;;;34.28;37.42
79028;BME280;68427;48.476;19.102;2023-07-13T10:45:34;97272.03;;;35.12;35.53
79028;BME280;68427;48.476;19.102;2023-07-13T10:48:01;97275.50;;;35.32;34.82
79028;BME280;68427;48.476;19.102;2023-07-13T10:50:29;97262.53;;;35.48;33.47
79028;BME280;68427;48.476;19.102;2023-07-13T10:53:03;97279.25;;;35.70;34.21
79028;BME280;68427;48.476;19.102;2023-07-13T10:55:37;97265.09;;;35.61;33.27
79028;BME280;68427;48.476;19.102;2023-07-13T10:58:12;97265.53;;;34.78;33.11
79028;BME280;68427;48.476;19.102;2023-07-13T11:00:46;97261.84;;;34.12;35.19
79028;BME280;68427;48.476;19.102;2023-07-13T11:03:15;97253.41;;;35.14;34.66
79028;BME280;68427;48.476;19.102;2023-07-13T11:05:43;97254.13;;;35.57;34.47
79028;BME280;68427;48.476;19.102;2023-07-13T11:08:18;97254.41;;;36.02;32.69
79028;BME280;68427;48.476;19.102;2023-07-13T11:10:48;97258.31;;;36.61;31.28
79028;BME280;68427;48.476;19.102;2023-07-13T11:13:36;97252.72;;;37.18;30.26
79028;BME280;68427;48.476;19.102;2023-07-13T11:16:12;97250.91;;;35.75;33.08
79028;BME280;68427;48.476;19.102;2023-07-13T11:18:38;97259.72;;;36.18;31.84
79028;BME280;68427;48.476;19.102;2023-07-13T11:21:15;97255.69;;;36.08;33.20
79028;BME280;68427;48.476;19.102;2023-07-13T11:23:43;97260.31;;;36.64;33.24
79028;BME280;68427;48.476;19.102;2023-07-13T11:26:37;97274.47;;;36.13;32.42
79028;BME280;68427;48.476;19.102;2023-07-13T11:29:08;97266.56;;;35.58;32.48
79028;BME280;68427;48.476;19.102;2023-07-13T11:31:35;97270.06;;;34.15;34.88
79028;BME280;68427;48.476;19.102;2023-07-13T11:34:00;97274.66;;;33.32;37.25
79028;BME280;68427;48.476;19.102;2023-07-13T11:36:38;97283.44;;;32.16;39.17
79028;BME280;68427;48.476;19.102;2023-07-13T11:39:17;97274.19;;;32.05;39.25
79028;BME280;68427;48.476;19.102;2023-07-13T11:41:45;97270.78;;;33.17;37.90
79028;BME280;68427;48.476;19.102;2023-07-13T11:44:18;97275.81;;;33.78;36.53
79028;BME280;68427;48.476;19.102;2023-07-13T11:46:47;97280.28;;;33.23;36.83
79028;BME280;68427;48.476;19.102;2023-07-13T11:49:16;97276.75;;;33.07;35.97
79028;BME280;68427;48.476;19.102;2023-07-13T11:51:44;97263.72;;;33.00;36.31
79028;BME280;68427;48.476;19.102;2023-07-13T11:54:20;97267.38;;;32.76;36.11
79028;BME280;68427;48.476;19.102;2023-07-13T11:56:48;97271.66;;;32.77;37.42
79028;BME280;68427;48.476;19.102;2023-07-13T11:59:15;97274.63;;;32.88;36.35
79028;BME280;68427;48.476;19.102;2023-07-13T12:01:44;97268.88;;;32.61;37.61
79028;BME280;68427;48.476;19.102;2023-07-13T12:04:20;97276.78;;;32.66;37.04
79028;BME280;68427;48.476;19.102;2023-07-13T12:06:54;97283.88;;;32.99;35.78
79028;BME280;68427;48.476;19.102;2023-07-13T12:09:22;97286.31;;;32.88;37.01
79028;BME280;68427;48.476;19.102;2023-07-13T12:11:51;97283.31;;;33.06;36.89
79028;BME280;68427;48.476;19.102;2023-07-13T12:14:18;97278.75;;;32.54;37.41
79028;BME280;68427;48.476;19.102;2023-07-13T12:16:45;97271.94;;;32.60;36.85
79028;BME280;68427;48.476;19.102;2023-07-13T12:19:18;97274.19;;;32.58;35.81
79028;BME280;68427;48.476;19.102;2023-07-13T12:21:44;97277.06;;;32.77;35.76
79028;BME280;68427;48.476;19.102;2023-07-13T12:24:16;97251.19;;;32.39;38.00
79028;BME280;68427;48.476;19.102;2023-07-13T12:26:43;97260.34;;;32.35;37.21
79028;BME280;68427;48.476;19.102;2023-07-13T12:29:16;97263.66;;;32.28;36.91
79028;BME280;68427;48.476;19.102;2023-07-13T12:31:47;97267.38;;;32.36;37.55
79028;BME280;68427;48.476;19.102;2023-07-13T12:34:15;97266.09;;;32.86;37.46
79028;BME280;68427;48.476;19.102;2023-07-13T12:36:46;97261.22;;;33.07;37.11
79028;BME280;68427;48.476;19.102;2023-07-13T12:39:18;97255.16;;;32.98;36.41
79028;BME280;68427;48.476;19.102;2023-07-13T12:41:47;97264.84;;;33.11;35.69
79028;BME280;68427;48.476;19.102;2023-07-13T12:44:15;97265.59;;;32.15;37.42
79028;BME280;68427;48.476;19.102;2023-07-13T12:46:52;97249.59;;;31.73;38.51
79028;BME280;68427;48.476;19.102;2023-07-13T12:49:23;97253.19;;;31.07;38.61
79028;BME280;68427;48.476;19.102;2023-07-13T12:51:50;97264.22;;;30.69;40.05
79028;BME280;68427;48.476;19.102;2023-07-13T12:54:18;97259.88;;;30.34;40.60